createdAt,value
2023-02-11T00:00:12.850Z,-1.83
2023-02-11T00:02:39.325Z,-1.89
2023-02-11T00:05:06.563Z,-1.85
2023-02-11T00:07:34.397Z,-1.94
2023-02-11T00:10:02.866Z,-2.02
2023-02-11T00:12:29.474Z,-1.96
2023-02-11T00:14:55.989Z,-1.98
2023-02-11T00:17:22.740Z,-2.02
2023-02-11T00:19:50.820Z,-2.15
2023-02-11T00:22:17.671Z,-2.32
2023-02-11T00:24:44.322Z,-2.31
2023-02-11T00:27:10.917Z,-2.19
2023-02-11T00:29:38.404Z,-2.06
2023-02-11T00:32:05.659Z,-1.92
2023-02-11T00:34:33.216Z,-1.87
2023-02-11T00:37:02.613Z,-1.89
2023-02-11T00:39:29.363Z,-1.90
2023-02-11T00:41:56.061Z,-1.88
2023-02-11T00:44:22.528Z,-2.04
2023-02-11T00:46:49.559Z,-2.19
2023-02-11T00:49:16.054Z,-2.15
2023-02-11T00:51:42.505Z,-2.05
2023-02-11T00:54:09.315Z,-1.84
2023-02-11T00:56:35.981Z,-1.77
2023-02-11T00:59:02.424Z,-1.65
2023-02-11T01:01:28.919Z,-1.64
2023-02-11T01:03:55.404Z,-1.46
2023-02-11T01:06:23.132Z,-1.44
2023-02-11T01:08:49.687Z,-1.47
2023-02-11T01:11:20.550Z,-1.40
2023-02-11T01:13:48.870Z,-1.47
2023-02-11T01:16:16.309Z,-1.49
2023-02-11T01:18:44.245Z,-1.49
2023-02-11T01:21:11.166Z,-1.46
2023-02-11T01:23:37.619Z,-1.45
2023-02-11T01:26:05.136Z,-1.47
2023-02-11T01:28:32.254Z,-1.25
2023-02-11T01:31:01.812Z,-1.31
2023-02-11T01:33:28.724Z,-1.29
2023-02-11T01:35:55.194Z,-1.35
2023-02-11T01:38:24.868Z,-1.34
2023-02-11T01:41:02.326Z,-1.26
2023-02-11T01:43:34.710Z,-1.24
2023-02-11T01:46:07.516Z,-1.19
2023-02-11T01:48:38.678Z,-1.14
2023-02-11T01:51:28.806Z,-1.11
2023-02-11T01:54:15.625Z,-1.16
2023-02-11T01:57:05.093Z,-1.18
2023-02-11T01:59:41.486Z,-1.20
2023-02-11T02:02:11.996Z,-1.29
2023-02-11T02:04:46.641Z,-1.17
2023-02-11T02:07:24.326Z,-1.09
2023-02-11T02:09:58.225Z,-1.10
2023-02-11T02:12:24.651Z,-1.06
2023-02-11T02:14:51.115Z,-1.01
2023-02-11T02:17:38.259Z,-1.19
2023-02-11T02:20:29.979Z,-1.33
2023-02-11T02:22:59.492Z,-1.40
2023-02-11T02:25:53.865Z,-1.30
2023-02-11T02:28:38.287Z,-1.22
2023-02-11T02:31:35.658Z,-1.10
2023-02-11T02:34:09.297Z,-0.97
2023-02-11T02:36:59.094Z,-0.83
2023-02-11T02:39:29.388Z,-0.80
2023-02-11T02:41:56.798Z,-0.70
2023-02-11T02:44:23.932Z,-0.65
2023-02-11T02:46:50.534Z,-0.68
2023-02-11T02:49:17.838Z,-0.80
2023-02-11T02:51:59.945Z,-0.75
2023-02-11T02:55:00.609Z,-0.67
2023-02-11T02:57:36.166Z,-0.62
2023-02-11T03:00:46.638Z,-0.56
2023-02-11T03:03:38.023Z,-0.50
2023-02-11T03:06:42.273Z,-0.49
2023-02-11T03:09:32.461Z,-0.60
2023-02-11T03:12:02.428Z,-0.71
2023-02-11T03:14:30.916Z,-0.66
2023-02-11T03:17:00.755Z,-0.74
2023-02-11T03:19:33.233Z,-0.63
2023-02-11T03:22:00.779Z,-0.74
2023-02-11T03:24:31.767Z,-0.55
2023-02-11T03:27:03.535Z,-0.62
2023-02-11T03:29:42.403Z,-0.66
2023-02-11T03:32:25.484Z,-0.68
2023-02-11T03:34:57.548Z,-0.91
2023-02-11T03:37:27.988Z,-1.09
2023-02-11T03:40:11.349Z,-1.04
2023-02-11T03:42:51.622Z,-1.05
2023-02-11T03:45:22.008Z,-1.11
2023-02-11T03:48:00.340Z,-0.99
2023-02-11T03:50:30.051Z,-0.88
2023-02-11T03:52:58.918Z,-0.77
2023-02-11T03:55:26.984Z,-0.78
2023-02-11T03:57:54.181Z,-0.80
2023-02-11T04:00:20.690Z,-0.83
2023-02-11T04:02:47.245Z,-0.83
2023-02-11T04:05:16.365Z,-0.90
2023-02-11T04:07:42.869Z,-0.93
2023-02-11T04:10:09.464Z,-0.83
2023-02-11T04:12:36.952Z,-0.75
2023-02-11T04:15:03.568Z,-0.77
2023-02-11T04:17:30.041Z,-0.64
2023-02-11T04:19:57.083Z,-0.68
2023-02-11T04:22:23.601Z,-0.73
2023-02-11T04:24:50.024Z,-0.76
2023-02-11T04:27:16.858Z,-0.87
2023-02-11T04:29:43.364Z,-0.97
2023-02-11T04:32:11.517Z,-1.03
2023-02-11T04:34:38.232Z,-1.07
2023-02-11T04:37:04.781Z,-1.00
2023-02-11T04:39:31.257Z,-0.93
2023-02-11T04:41:57.730Z,-0.93
2023-02-11T04:44:24.182Z,-0.83
2023-02-11T04:46:50.619Z,-0.77
2023-02-11T04:49:17.340Z,-0.76
2023-02-11T04:51:49.317Z,-0.71
2023-02-11T04:54:16.760Z,-0.72
2023-02-11T04:56:43.250Z,-0.64
2023-02-11T04:59:09.796Z,-0.65
2023-02-11T05:01:36.316Z,-0.57
2023-02-11T05:04:02.879Z,-0.57
2023-02-11T05:06:29.339Z,-0.52
2023-02-11T05:08:56.376Z,-0.53
2023-02-11T05:11:24.401Z,-0.56
2023-02-11T05:13:51.508Z,-0.56
2023-02-11T05:16:18.728Z,-0.54
2023-02-11T05:18:45.505Z,-0.58
2023-02-11T05:21:15.920Z,-0.42
2023-02-11T05:23:42.580Z,-0.36
2023-02-11T05:26:09.716Z,-0.38
2023-02-11T05:28:36.344Z,-0.36
2023-02-11T05:31:03.511Z,-0.37
2023-02-11T05:33:30.026Z,-0.28
2023-02-11T05:36:04.453Z,-0.37
2023-02-11T05:38:30.900Z,-0.47
2023-02-11T05:40:57.382Z,-0.36
2023-02-11T05:43:23.903Z,-0.28
2023-02-11T05:45:50.767Z,-0.38
2023-02-11T05:48:17.825Z,-0.24
2023-02-11T05:50:44.784Z,-0.23
2023-02-11T05:53:11.733Z,-0.20
2023-02-11T05:55:38.399Z,-0.16
2023-02-11T05:58:05.970Z,-0.17
2023-02-11T06:00:32.453Z,-0.21
2023-02-11T06:02:59.012Z,-0.22
2023-02-11T06:05:26.174Z,-0.27
2023-02-11T06:07:52.876Z,-0.17
2023-02-11T06:10:19.338Z,-0.13
2023-02-11T06:12:46.876Z,-0.10
2023-02-11T06:15:13.439Z,-0.14
2023-02-11T06:17:39.985Z,-0.08
2023-02-11T06:20:09.308Z,-0.09
2023-02-11T06:22:35.809Z,-0.07
2023-02-11T06:25:02.522Z,-0.06
2023-02-11T06:27:29.753Z,-0.07
2023-02-11T06:29:56.323Z,-0.01
2023-02-11T06:32:42.707Z,0.03
2023-02-11T06:35:11.773Z,0.04
2023-02-11T06:37:38.943Z,0.12
2023-02-11T06:40:06.094Z,0.16
2023-02-11T06:42:32.613Z,0.18
2023-02-11T06:44:59.114Z,0.12
2023-02-11T06:47:26.310Z,0.17
2023-02-11T06:49:52.748Z,0.18
2023-02-11T06:52:19.174Z,0.25
2023-02-11T06:54:46.407Z,0.20
2023-02-11T06:57:12.840Z,0.26
2023-02-11T06:59:39.412Z,0.30
2023-02-11T07:02:05.977Z,0.33
2023-02-11T07:04:32.953Z,0.40
2023-02-11T07:06:59.380Z,0.45
2023-02-11T07:09:25.856Z,0.48
2023-02-11T07:11:52.446Z,0.49
2023-02-11T07:14:19.102Z,0.56
2023-02-11T07:16:46.024Z,0.61
2023-02-11T07:19:12.519Z,0.60
2023-02-11T07:21:38.931Z,0.62
2023-02-11T07:24:11.274Z,0.67
2023-02-11T07:26:38.151Z,0.67
2023-02-11T07:29:04.887Z,0.76
2023-02-11T07:31:31.884Z,0.83
2023-02-11T07:34:00.898Z,0.83
2023-02-11T07:36:29.577Z,0.83
2023-02-11T07:38:56.311Z,0.92
2023-02-11T07:41:24.124Z,0.96
2023-02-11T07:43:50.601Z,1.02
2023-02-11T07:46:23.381Z,1.09
2023-02-11T07:48:49.998Z,1.18
2023-02-11T07:51:25.231Z,1.18
2023-02-11T07:53:52.082Z,1.05
2023-02-11T07:56:20.323Z,1.33
2023-02-11T07:58:47.340Z,2.38
2023-02-11T08:01:27.142Z,2.82
2023-02-11T08:03:55.513Z,3.30
2023-02-11T08:06:24.250Z,3.28
2023-02-11T08:08:51.493Z,3.07
2023-02-11T08:11:22.152Z,2.90
2023-02-11T08:13:48.850Z,2.67
2023-02-11T08:16:19.863Z,2.58
2023-02-11T08:18:47.916Z,2.49
2023-02-11T08:21:14.356Z,2.41
2023-02-11T08:23:42.675Z,2.38
2023-02-11T08:26:15.696Z,2.27
2023-02-11T08:28:43.726Z,2.12
2023-02-11T08:31:21.956Z,2.21
2023-02-11T08:33:49.160Z,2.24
2023-02-11T08:36:18.609Z,2.24
2023-02-11T08:38:45.552Z,2.25
2023-02-11T08:41:12.121Z,2.28
2023-02-11T08:43:41.598Z,2.26
2023-02-11T08:46:10.287Z,2.29
2023-02-11T08:48:38.095Z,2.34
2023-02-11T08:51:14.673Z,2.39
2023-02-11T08:53:41.323Z,2.23
2023-02-11T08:56:12.190Z,2.33
2023-02-11T08:58:40.248Z,2.37
2023-02-11T09:01:12.227Z,2.46
2023-02-11T09:03:38.742Z,2.54
2023-02-11T09:06:07.338Z,2.58
2023-02-11T09:08:36.021Z,2.68
2023-02-11T09:11:03.722Z,2.73
2023-02-11T09:13:31.092Z,2.88
2023-02-11T09:15:59.081Z,3.04
2023-02-11T09:18:25.676Z,3.19
2023-02-11T09:20:52.752Z,3.26
2023-02-11T09:23:19.608Z,3.36
2023-02-11T09:25:46.208Z,3.41
2023-02-11T09:28:12.734Z,3.39
2023-02-11T09:30:39.843Z,3.41
2023-02-11T09:33:06.334Z,3.41
2023-02-11T09:35:34.141Z,3.34
2023-02-11T09:38:00.695Z,3.41
2023-02-11T09:40:27.174Z,3.45
2023-02-11T09:43:18.439Z,3.50
2023-02-11T09:45:45.327Z,3.54
2023-02-11T09:48:18.865Z,3.54
2023-02-11T09:50:55.927Z,3.56
2023-02-11T09:53:25.893Z,3.55
2023-02-11T09:55:55.826Z,3.72
2023-02-11T09:58:34.444Z,3.76
2023-02-11T10:01:30.578Z,4.00
2023-02-11T10:04:14.499Z,4.11
2023-02-11T10:06:46.749Z,4.26
2023-02-11T10:09:25.696Z,4.31
2023-02-11T10:12:01.914Z,4.34
2023-02-11T10:14:59.869Z,4.33
2023-02-11T10:17:32.198Z,4.36
2023-02-11T10:20:15.144Z,4.40
2023-02-11T10:22:49.338Z,4.42
2023-02-11T10:25:29.826Z,4.55
2023-02-11T10:27:59.719Z,4.63
2023-02-11T10:30:34.734Z,4.75
2023-02-11T10:33:06.443Z,4.71
2023-02-11T10:35:33.388Z,4.84
2023-02-11T10:38:00.592Z,4.78
2023-02-11T10:40:30.301Z,4.81
2023-02-11T10:43:05.868Z,4.71
2023-02-11T10:45:36.565Z,4.75
2023-02-11T10:48:38.436Z,4.76
2023-02-11T10:51:12.300Z,4.58
2023-02-11T10:53:40.945Z,4.66
2023-02-11T10:56:10.538Z,4.74
2023-02-11T10:58:46.320Z,4.86
2023-02-11T11:01:23.890Z,4.67
2023-02-11T11:03:52.865Z,4.79
2023-02-11T11:06:31.550Z,4.82
2023-02-11T11:08:58.592Z,4.93
2023-02-11T11:11:26.661Z,5.12
2023-02-11T11:13:53.011Z,5.26
2023-02-11T11:16:32.524Z,5.44
2023-02-11T11:19:08.132Z,5.60
2023-02-11T11:21:50.144Z,5.67
2023-02-11T11:24:31.146Z,5.82
2023-02-11T11:27:01.377Z,5.98
2023-02-11T11:29:48.331Z,6.04
2023-02-11T11:32:25.376Z,6.14
2023-02-11T11:34:56.327Z,6.20
2023-02-11T11:37:26.658Z,6.21
2023-02-11T11:39:59.107Z,6.20
2023-02-11T11:42:32.335Z,6.05
2023-02-11T11:45:20.065Z,6.26
2023-02-11T11:47:58.245Z,6.32
2023-02-11T11:50:33.173Z,6.41
2023-02-11T11:53:42.440Z,6.45
2023-02-11T11:56:19.640Z,6.42
2023-02-11T11:58:46.393Z,6.43
2023-02-11T12:01:18.588Z,6.49
2023-02-11T12:03:49.745Z,6.54
2023-02-11T12:06:25.207Z,6.41
2023-02-11T12:09:09.822Z,6.45
2023-02-11T12:11:37.049Z,6.41
2023-02-11T12:14:11.989Z,6.39
2023-02-11T12:16:51.906Z,6.34
2023-02-11T12:19:31.718Z,5.86
2023-02-11T12:22:19.835Z,5.81
2023-02-11T12:25:04.289Z,5.77
2023-02-11T12:27:46.065Z,5.90
2023-02-11T12:30:50.325Z,5.73
2023-02-11T12:33:49.580Z,5.77
2023-02-11T12:36:43.480Z,5.74
2023-02-11T12:39:40.672Z,5.79
2023-02-11T12:42:57.023Z,5.52
2023-02-11T12:45:38.658Z,5.56
2023-02-11T12:48:35.895Z,5.72
2023-02-11T12:51:24.220Z,5.54
2023-02-11T12:54:08.304Z,5.49
2023-02-11T12:56:45.817Z,5.49
2023-02-11T12:59:50.062Z,5.46
2023-02-11T13:02:45.477Z,5.55
2023-02-11T13:05:30.699Z,5.57
2023-02-11T13:08:35.486Z,5.60
2023-02-11T13:11:14.402Z,5.61
2023-02-11T13:13:55.851Z,5.58
2023-02-11T13:16:48.114Z,5.60
2023-02-11T13:19:24.756Z,5.57
2023-02-11T13:22:06.322Z,5.57
2023-02-11T13:24:47.900Z,5.43
2023-02-11T13:27:38.854Z,5.33
2023-02-11T13:30:23.347Z,5.38
2023-02-11T13:32:55.769Z,5.38
2023-02-11T13:35:39.900Z,5.42
2023-02-11T13:38:22.578Z,5.48
2023-02-11T13:41:04.991Z,5.49
2023-02-11T13:43:34.344Z,5.55
2023-02-11T13:46:21.211Z,5.47
2023-02-11T13:48:53.029Z,5.45
2023-02-11T13:51:36.655Z,5.45
2023-02-11T13:54:05.149Z,5.46
2023-02-11T13:56:34.756Z,5.44
2023-02-11T13:59:25.496Z,5.46
2023-02-11T14:02:23.658Z,5.53
2023-02-11T14:05:37.835Z,5.50
2023-02-11T14:08:33.229Z,5.53
2023-02-11T14:11:01.007Z,5.51
2023-02-11T14:13:46.982Z,5.46
2023-02-11T14:16:36.319Z,5.43
2023-02-11T14:19:03.910Z,5.43
2023-02-11T14:21:36.823Z,5.41
2023-02-11T14:24:04.790Z,5.37
2023-02-11T14:27:00.825Z,5.34
2023-02-11T14:29:43.901Z,5.28
2023-02-11T14:32:31.502Z,5.06
2023-02-11T14:35:25.910Z,5.28
2023-02-11T14:38:18.556Z,5.29
2023-02-11T14:40:58.483Z,5.25
2023-02-11T14:43:30.727Z,5.26
2023-02-11T14:45:58.606Z,5.17
2023-02-11T14:48:31.591Z,5.19
2023-02-11T14:51:02.630Z,5.23
2023-02-11T14:53:31.745Z,5.19
2023-02-11T14:55:58.334Z,5.06
2023-02-11T14:58:27.756Z,5.18
2023-02-11T15:01:02.118Z,5.22
2023-02-11T15:03:49.518Z,5.10
2023-02-11T15:06:31.975Z,5.13
2023-02-11T15:09:02.629Z,5.08
2023-02-11T15:11:34.511Z,5.07
2023-02-11T15:14:30.407Z,5.09
2023-02-11T15:17:01.155Z,5.04
2023-02-11T15:19:41.474Z,5.00
2023-02-11T15:22:20.052Z,5.01
2023-02-11T15:24:58.454Z,4.97
2023-02-11T15:27:25.805Z,5.02
2023-02-11T15:29:52.509Z,5.02
2023-02-11T15:32:25.194Z,5.07
2023-02-11T15:34:54.448Z,5.02
2023-02-11T15:37:29.735Z,5.09
2023-02-11T15:40:10.817Z,5.01
2023-02-11T15:42:51.895Z,5.05
2023-02-11T15:45:29.510Z,5.01
2023-02-11T15:48:18.933Z,5.06
2023-02-11T15:50:54.739Z,5.05
2023-02-11T15:53:28.918Z,4.98
2023-02-11T15:56:20.451Z,4.95
2023-02-11T15:58:49.377Z,4.93
2023-02-11T16:01:16.011Z,4.92
2023-02-11T16:03:43.752Z,4.96
2023-02-11T16:06:18.820Z,4.92
2023-02-11T16:09:08.222Z,4.87
2023-02-11T16:11:56.426Z,4.80
2023-02-11T16:14:23.304Z,4.56
2023-02-11T16:16:56.519Z,4.71
2023-02-11T16:19:25.888Z,4.76
2023-02-11T16:21:54.021Z,4.64
2023-02-11T16:24:35.538Z,4.66
2023-02-11T16:27:18.415Z,4.61
2023-02-11T16:29:47.511Z,4.54
2023-02-11T16:32:18.325Z,4.52
2023-02-11T16:34:45.113Z,4.48
2023-02-11T16:37:11.808Z,4.39
2023-02-11T16:39:38.341Z,4.36
2023-02-11T16:42:07.581Z,4.34
2023-02-11T16:44:34.799Z,4.30
2023-02-11T16:47:05.895Z,4.19
2023-02-11T16:49:41.570Z,4.13
2023-02-11T16:52:12.640Z,4.29
2023-02-11T16:54:39.259Z,4.32
2023-02-11T16:57:15.924Z,4.20
2023-02-11T16:59:42.812Z,4.23
2023-02-11T17:02:15.560Z,4.28
2023-02-11T17:04:42.837Z,4.15
2023-02-11T17:07:09.324Z,4.14
2023-02-11T17:09:36.044Z,4.10
2023-02-11T17:12:02.481Z,4.06
2023-02-11T17:14:29.144Z,4.00
2023-02-11T17:16:56.410Z,3.79
2023-02-11T17:19:23.077Z,3.92
2023-02-11T17:21:52.554Z,3.96
2023-02-11T17:24:20.998Z,3.89
2023-02-11T17:26:48.108Z,3.92
2023-02-11T17:29:18.482Z,3.98
2023-02-11T17:31:45.385Z,3.98
2023-02-11T17:34:12.283Z,3.98
2023-02-11T17:36:41.231Z,4.03
2023-02-11T17:39:08.837Z,4.02
2023-02-11T17:41:36.796Z,4.06
2023-02-11T17:44:03.426Z,4.06
2023-02-11T17:46:29.858Z,4.03
2023-02-11T17:48:59.570Z,3.96
2023-02-11T17:51:32.416Z,3.92
2023-02-11T17:54:01.071Z,3.89
2023-02-11T17:56:29.871Z,3.92
2023-02-11T17:58:56.307Z,3.89
2023-02-11T18:01:23.111Z,3.75
2023-02-11T18:03:49.677Z,3.74
2023-02-11T18:06:16.724Z,3.59
2023-02-11T18:08:43.378Z,3.51
2023-02-11T18:11:11.876Z,3.55
2023-02-11T18:13:38.548Z,3.57
2023-02-11T18:16:06.026Z,3.58
2023-02-11T18:18:32.497Z,3.51
2023-02-11T18:21:00.890Z,3.45
2023-02-11T18:23:28.046Z,3.45
2023-02-11T18:25:54.511Z,3.55
2023-02-11T18:28:21.098Z,3.53
2023-02-11T18:30:47.919Z,3.47
2023-02-11T18:33:14.475Z,3.50
2023-02-11T18:35:42.102Z,3.53
2023-02-11T18:38:09.598Z,3.54
2023-02-11T18:40:40.205Z,3.55
2023-02-11T18:43:07.348Z,3.58
2023-02-11T18:45:34.311Z,3.50
2023-02-11T18:48:03.508Z,3.47
2023-02-11T18:50:29.907Z,3.42
2023-02-11T18:52:56.637Z,3.50
2023-02-11T18:55:25.676Z,3.38
2023-02-11T18:57:52.898Z,3.46
2023-02-11T19:00:20.594Z,3.54
2023-02-11T19:02:47.055Z,3.57
2023-02-11T19:05:13.756Z,3.54
2023-02-11T19:07:40.218Z,3.53
2023-02-11T19:10:07.371Z,3.45
2023-02-11T19:12:34.111Z,3.40
2023-02-11T19:15:00.830Z,3.38
2023-02-11T19:17:27.498Z,3.32
2023-02-11T19:19:54.006Z,3.46
2023-02-11T19:22:20.447Z,3.47
2023-02-11T19:24:46.933Z,3.41
2023-02-11T19:27:13.451Z,3.34
2023-02-11T19:29:39.904Z,3.35
2023-02-11T19:32:06.504Z,3.33
2023-02-11T19:34:33.891Z,3.35
2023-02-11T19:37:01.580Z,3.26
2023-02-11T19:39:28.113Z,3.19
2023-02-11T19:41:54.743Z,3.22
2023-02-11T19:44:21.491Z,3.12
2023-02-11T19:46:50.133Z,3.09
2023-02-11T19:49:23.620Z,3.09
2023-02-11T19:51:51.264Z,3.08
2023-02-11T19:54:17.822Z,3.06
2023-02-11T19:56:45.276Z,3.07
2023-02-11T19:59:13.769Z,3.07
2023-02-11T20:01:40.935Z,3.04
2023-02-11T20:04:08.205Z,3.03
2023-02-11T20:06:36.115Z,3.13
2023-02-11T20:09:07.040Z,3.11
2023-02-11T20:11:34.680Z,3.19
2023-02-11T20:14:01.146Z,3.16
2023-02-11T20:16:46.171Z,3.18
2023-02-11T20:19:18.730Z,3.14
2023-02-11T20:21:48.027Z,3.19
2023-02-11T20:24:16.339Z,3.18
2023-02-11T20:26:45.330Z,3.00
2023-02-11T20:29:12.094Z,3.12
2023-02-11T20:31:38.724Z,3.16
2023-02-11T20:34:05.250Z,3.17
2023-02-11T20:36:35.552Z,3.21
2023-02-11T20:39:04.869Z,3.22
2023-02-11T20:41:34.474Z,3.20
2023-02-11T20:44:04.171Z,3.19
2023-02-11T20:46:32.896Z,3.19
2023-02-11T20:49:00.668Z,3.28
2023-02-11T20:51:29.720Z,3.27
2023-02-11T20:53:56.567Z,3.19
2023-02-11T20:56:29.314Z,3.06
2023-02-11T20:58:58.001Z,3.12
2023-02-11T21:01:27.491Z,3.10
2023-02-11T21:04:03.579Z,2.97
2023-02-11T21:06:36.104Z,3.02
2023-02-11T21:09:06.106Z,2.93
2023-02-11T21:11:33.217Z,3.07
2023-02-11T21:14:00.509Z,3.04
2023-02-11T21:16:27.230Z,3.05
2023-02-11T21:18:55.325Z,3.00
2023-02-11T21:21:22.415Z,2.89
2023-02-11T21:23:49.158Z,2.91
2023-02-11T21:26:16.895Z,2.92
2023-02-11T21:28:44.255Z,2.93
2023-02-11T21:31:19.433Z,2.75
2023-02-11T21:33:47.181Z,2.89
2023-02-11T21:36:14.979Z,2.91
2023-02-11T21:38:41.855Z,2.88
2023-02-11T21:41:08.318Z,2.86
2023-02-11T21:43:34.952Z,2.60
2023-02-11T21:46:07.561Z,2.89
2023-02-11T21:48:34.029Z,2.85
2023-02-11T21:51:05.431Z,2.82
2023-02-11T21:53:32.167Z,2.87
2023-02-11T21:56:14.533Z,2.74
2023-02-11T21:58:41.375Z,2.73
2023-02-11T22:01:20.285Z,2.76
2023-02-11T22:03:47.525Z,2.82
2023-02-11T22:06:17.424Z,2.86
2023-02-11T22:08:43.953Z,2.87
2023-02-11T22:11:12.542Z,2.88
2023-02-11T22:13:39.947Z,2.81
2023-02-11T22:16:09.432Z,2.68
2023-02-11T22:18:36.523Z,2.65
2023-02-11T22:21:06.550Z,2.67
2023-02-11T22:23:33.769Z,2.48
2023-02-11T22:26:05.516Z,2.48
2023-02-11T22:28:32.045Z,2.54
2023-02-11T22:30:59.438Z,2.54
2023-02-11T22:33:27.513Z,2.35
2023-02-11T22:36:01.759Z,2.43
2023-02-11T22:38:32.229Z,2.39
2023-02-11T22:41:00.682Z,2.42
2023-02-11T22:43:30.036Z,2.49
2023-02-11T22:46:00.125Z,2.49
2023-02-11T22:48:26.942Z,2.58
2023-02-11T22:50:53.536Z,2.60
2023-02-11T22:53:20.053Z,2.65
2023-02-11T22:55:46.505Z,2.74
2023-02-11T22:58:12.954Z,2.76
2023-02-11T23:00:41.238Z,2.80
2023-02-11T23:03:08.585Z,2.86
2023-02-11T23:05:41.484Z,2.81
2023-02-11T23:08:10.241Z,2.81
2023-02-11T23:10:38.401Z,2.87
2023-02-11T23:13:05.919Z,2.87
2023-02-11T23:15:33.185Z,2.90
2023-02-11T23:18:00.719Z,2.88
2023-02-11T23:20:27.187Z,2.81
2023-02-11T23:22:53.723Z,2.87
2023-02-11T23:25:20.123Z,2.89
2023-02-11T23:27:46.759Z,2.90
2023-02-11T23:30:13.677Z,2.86
2023-02-11T23:32:41.142Z,2.83
2023-02-11T23:35:08.079Z,2.82
2023-02-11T23:37:34.659Z,2.79
2023-02-11T23:40:01.125Z,2.76
2023-02-11T23:42:28.642Z,2.62
2023-02-11T23:44:55.196Z,2.53
2023-02-11T23:47:21.667Z,2.46
2023-02-11T23:49:48.169Z,2.43
2023-02-11T23:52:15.623Z,2.47
2023-02-11T23:54:43.297Z,2.43
2023-02-11T23:57:09.717Z,2.42
2023-02-11T23:59:36.179Z,2.45
